createdAt,value
2023-04-25T00:00:34.368Z,99173.03
2023-04-25T00:01:16.073Z,99174.84
2023-04-25T00:01:58.582Z,99176.91
2023-04-25T00:02:40.294Z,99171.59
2023-04-25T00:03:22.265Z,99179.53
2023-04-25T00:04:06.959Z,99114.34
2023-04-25T00:04:50.497Z,99182.59
2023-04-25T00:05:32.724Z,99175.56
2023-04-25T00:06:15.279Z,99149.00
2023-04-25T00:06:56.967Z,99176.41
2023-04-25T00:07:39.380Z,99151.94
2023-04-25T00:08:21.270Z,99170.31
2023-04-25T00:09:11.140Z,99172.56
2023-04-25T00:09:52.817Z,99178.50
2023-04-25T00:10:34.483Z,99152.75
2023-04-25T00:11:16.084Z,99165.84
2023-04-25T00:11:57.792Z,99156.06
2023-04-25T00:12:39.951Z,99173.66
2023-04-25T00:13:22.477Z,99167.94
2023-04-25T00:14:05.186Z,99173.88
2023-04-25T00:14:47.430Z,99173.25
2023-04-25T00:15:31.588Z,99110.06
2023-04-25T00:16:15.861Z,99174.03
2023-04-25T00:16:57.513Z,99180.50
2023-04-25T00:17:39.459Z,99170.94
2023-04-25T00:18:21.245Z,99173.78
2023-04-25T00:19:03.268Z,99161.69
2023-04-25T00:19:47.025Z,99169.50
2023-04-25T00:20:28.643Z,99171.91
2023-04-25T00:21:10.797Z,99178.38
2023-04-25T00:21:52.392Z,99148.09
2023-04-25T00:22:35.652Z,99172.16
2023-04-25T00:23:20.695Z,99178.91
2023-04-25T00:24:02.323Z,99181.75
2023-04-25T00:24:44.104Z,99164.59
2023-04-25T00:25:25.885Z,99170.53
2023-04-25T00:26:07.459Z,99172.16
2023-04-25T00:26:49.008Z,99135.81
2023-04-25T00:27:30.672Z,99116.94
2023-04-25T00:28:13.187Z,99172.53
2023-04-25T00:28:54.774Z,99172.97
2023-04-25T00:29:36.336Z,99168.25
2023-04-25T00:30:17.953Z,99148.44
2023-04-25T00:30:59.600Z,99154.34
2023-04-25T00:31:41.346Z,99099.56
2023-04-25T00:32:23.130Z,99173.94
2023-04-25T00:33:04.922Z,99170.66
2023-04-25T00:33:47.278Z,99162.03
2023-04-25T00:34:28.877Z,99169.41
2023-04-25T00:35:11.050Z,99158.38
2023-04-25T00:35:52.669Z,99100.31
2023-04-25T00:36:34.345Z,99159.19
2023-04-25T00:37:16.090Z,99167.56
2023-04-25T00:37:57.719Z,99166.31
2023-04-25T00:38:39.414Z,99168.53
2023-04-25T00:39:21.026Z,99159.16
2023-04-25T00:40:03.466Z,99148.19
2023-04-25T00:40:45.209Z,99151.28
2023-04-25T00:41:28.059Z,99145.31
2023-04-25T00:42:09.709Z,99154.88
2023-04-25T00:42:53.173Z,99169.41
2023-04-25T00:43:37.038Z,99154.69
2023-04-25T00:44:19.315Z,99164.94
2023-04-25T00:45:01.755Z,99177.97
2023-04-25T00:45:44.285Z,99163.75
2023-04-25T00:46:25.937Z,99039.38
2023-04-25T00:47:08.193Z,99142.47
2023-04-25T00:47:50.086Z,99158.47
2023-04-25T00:48:31.810Z,99162.34
2023-04-25T00:49:16.477Z,99157.97
2023-04-25T00:49:58.129Z,99106.41
2023-04-25T00:50:39.867Z,99144.75
2023-04-25T00:51:22.624Z,99155.38
2023-04-25T00:52:05.204Z,99168.66
2023-04-25T00:52:47.197Z,99161.09
2023-04-25T00:53:29.372Z,99155.75
2023-04-25T00:54:12.974Z,99151.03
2023-04-25T00:54:54.984Z,99169.13
2023-04-25T00:55:37.157Z,99136.44
2023-04-25T00:56:18.958Z,99165.72
2023-04-25T00:57:01.984Z,99158.34
2023-04-25T00:57:44.074Z,99162.44
2023-04-25T00:58:25.968Z,99141.78
2023-04-25T00:59:08.412Z,99158.97
2023-04-25T00:59:52.129Z,99166.75
2023-04-25T01:00:34.154Z,99154.91
2023-04-25T01:01:15.890Z,99151.03
2023-04-25T01:01:57.972Z,99124.47
2023-04-25T01:02:43.128Z,99167.22
2023-04-25T01:03:25.616Z,99145.75
2023-04-25T01:04:07.942Z,99162.38
2023-04-25T01:04:50.357Z,99163.41
2023-04-25T01:05:32.530Z,99129.72
2023-04-25T01:06:14.172Z,99160.63
2023-04-25T01:06:56.933Z,99143.25
2023-04-25T01:07:39.218Z,99149.22
2023-04-25T01:08:24.442Z,99163.56
2023-04-25T01:09:06.353Z,99164.19
2023-04-25T01:09:48.068Z,99156.41
2023-04-25T01:10:29.670Z,99169.63
2023-04-25T01:11:11.307Z,99131.66
2023-04-25T01:11:53.493Z,99170.78
2023-04-25T01:12:35.419Z,99146.25
2023-04-25T01:13:17.058Z,99158.69
2023-04-25T01:13:59.349Z,99138.81
2023-04-25T01:14:41.002Z,99151.44
2023-04-25T01:15:22.702Z,99157.00
2023-04-25T01:16:04.900Z,99144.94
2023-04-25T01:16:47.579Z,99156.69
2023-04-25T01:17:30.278Z,99103.97
2023-04-25T01:18:13.100Z,99152.78
2023-04-25T01:18:55.960Z,99139.84
2023-04-25T01:19:37.800Z,99150.63
2023-04-25T01:20:23.151Z,99150.28
2023-04-25T01:21:09.812Z,99153.47
2023-04-25T01:21:52.105Z,99151.22
2023-04-25T01:22:34.451Z,99156.50
2023-04-25T01:23:16.390Z,99150.97
2023-04-25T01:23:58.844Z,99154.06
2023-04-25T01:24:40.939Z,99133.78
2023-04-25T01:25:23.437Z,99152.78
2023-04-25T01:26:05.409Z,99158.63
2023-04-25T01:26:50.832Z,99143.88
2023-04-25T01:27:37.733Z,99145.81
2023-04-25T01:28:20.345Z,99148.03
2023-04-25T01:29:02.023Z,99150.69
2023-04-25T01:29:43.794Z,99154.34
2023-04-25T01:30:28.214Z,99150.50
2023-04-25T01:31:10.250Z,99147.69
2023-04-25T01:31:53.623Z,99145.84
2023-04-25T01:32:39.398Z,99135.06
2023-04-25T01:33:22.540Z,99146.13
2023-04-25T01:34:04.218Z,99134.09
2023-04-25T01:34:45.922Z,99120.81
2023-04-25T01:35:27.740Z,99144.16
2023-04-25T01:36:10.055Z,99141.16
2023-04-25T01:36:53.479Z,99133.59
2023-04-25T01:37:35.089Z,99140.16
2023-04-25T01:38:16.744Z,99141.97
2023-04-25T01:38:58.489Z,99117.25
2023-04-25T01:39:40.307Z,99124.34
2023-04-25T01:40:26.060Z,99136.88
2023-04-25T01:41:07.887Z,99110.69
2023-04-25T01:41:50.024Z,99130.78
2023-04-25T01:42:33.198Z,99138.31
2023-04-25T01:43:15.368Z,99136.09
2023-04-25T01:43:57.227Z,99116.94
2023-04-25T01:44:38.899Z,99128.06
2023-04-25T01:45:21.384Z,99137.41
2023-04-25T01:46:03.846Z,99141.69
2023-04-25T01:46:45.555Z,99137.00
2023-04-25T01:47:27.249Z,99136.41
2023-04-25T01:48:11.335Z,99131.75
2023-04-25T01:48:53.092Z,99112.13
2023-04-25T01:49:34.827Z,99004.41
2023-04-25T01:50:18.630Z,99112.22
2023-04-25T01:51:00.808Z,99132.41
2023-04-25T01:51:45.195Z,99130.13
2023-04-25T01:52:26.899Z,99130.53
2023-04-25T01:53:10.921Z,99124.78
2023-04-25T01:53:53.484Z,99121.06
2023-04-25T01:54:35.650Z,99123.91
2023-04-25T01:55:17.851Z,99122.47
2023-04-25T01:56:14.613Z,99126.31
2023-04-25T01:56:58.483Z,99125.84
2023-04-25T01:57:40.728Z,99112.31
2023-04-25T01:58:23.151Z,99133.16
2023-04-25T01:59:22.674Z,99137.00
2023-04-25T02:00:30.625Z,99127.44
2023-04-25T02:01:12.662Z,99132.91
2023-04-25T02:02:00.544Z,99133.91
2023-04-25T02:02:46.282Z,99115.94
2023-04-25T02:03:45.125Z,99128.72
2023-04-25T02:04:35.587Z,99108.19
2023-04-25T02:05:18.948Z,99122.63
2023-04-25T02:06:00.976Z,99135.78
2023-04-25T02:06:43.581Z,99111.47
2023-04-25T02:07:27.458Z,99124.34
2023-04-25T02:08:09.968Z,99107.59
2023-04-25T02:08:51.646Z,99140.97
2023-04-25T02:09:33.355Z,99128.31
2023-04-25T02:10:19.138Z,99109.00
2023-04-25T02:11:19.673Z,99117.09
2023-04-25T02:12:21.583Z,99138.97
2023-04-25T02:13:21.672Z,99136.97
2023-04-25T02:14:19.299Z,99136.53
2023-04-25T02:15:07.990Z,99110.75
2023-04-25T02:15:58.120Z,99115.03
2023-04-25T02:16:40.609Z,99127.47
2023-04-25T02:17:22.968Z,99129.72
2023-04-25T02:18:07.291Z,99130.06
2023-04-25T02:18:49.029Z,99080.38
2023-04-25T02:19:30.714Z,99070.94
2023-04-25T02:20:12.452Z,99125.50
2023-04-25T02:20:55.030Z,99093.16
2023-04-25T02:21:36.759Z,99133.41
2023-04-25T02:22:19.080Z,99055.91
2023-04-25T02:23:01.366Z,99140.25
2023-04-25T02:23:43.712Z,99108.91
2023-04-25T02:24:25.426Z,99133.72
2023-04-25T02:25:07.444Z,99120.19
2023-04-25T02:25:49.785Z,99137.19
2023-04-25T02:26:31.534Z,99130.28
2023-04-25T02:27:13.181Z,99141.78
2023-04-25T02:27:54.821Z,99130.44
2023-04-25T02:28:36.475Z,99125.25
2023-04-25T02:29:19.936Z,99131.56
2023-04-25T02:30:02.044Z,99126.53
2023-04-25T02:30:43.730Z,99136.94
2023-04-25T02:31:25.431Z,99130.81
2023-04-25T02:32:07.105Z,99125.13
2023-04-25T02:32:48.687Z,99122.13
2023-04-25T02:33:30.637Z,99132.31
2023-04-25T02:34:13.222Z,99127.03
2023-04-25T02:34:55.043Z,99126.41
2023-04-25T02:35:36.705Z,99062.22
2023-04-25T02:36:18.270Z,99066.91
2023-04-25T02:36:59.918Z,99086.72
2023-04-25T02:37:41.705Z,99115.06
2023-04-25T02:38:23.296Z,99106.09
2023-04-25T02:39:05.129Z,99123.84
2023-04-25T02:39:46.730Z,99127.47
2023-04-25T02:40:28.458Z,99049.63
2023-04-25T02:41:10.097Z,99075.34
2023-04-25T02:41:52.709Z,99129.31
2023-04-25T02:42:34.387Z,99097.28
2023-04-25T02:43:16.990Z,99114.66
2023-04-25T02:43:58.607Z,99037.59
2023-04-25T02:44:40.281Z,99119.72
2023-04-25T02:45:22.217Z,99120.13
2023-04-25T02:46:05.104Z,99114.25
2023-04-25T02:46:46.781Z,99122.19
2023-04-25T02:47:28.846Z,99119.50
2023-04-25T02:48:10.611Z,99120.25
2023-04-25T02:48:52.275Z,99119.38
2023-04-25T02:49:33.909Z,99101.75
2023-04-25T02:50:15.645Z,99116.06
2023-04-25T02:50:57.303Z,99101.06
2023-04-25T02:51:38.938Z,99120.25
2023-04-25T02:52:20.707Z,99101.19
2023-04-25T02:53:08.899Z,99083.59
2023-04-25T02:53:56.590Z,99119.31
2023-04-25T02:54:39.274Z,99120.69
2023-04-25T02:55:20.996Z,99068.47
2023-04-25T02:56:03.372Z,99105.53
2023-04-25T02:56:44.954Z,99115.78
2023-04-25T02:57:31.677Z,99119.25
2023-04-25T02:58:13.701Z,99087.97
2023-04-25T02:59:00.377Z,99123.94
2023-04-25T02:59:42.465Z,99120.31
2023-04-25T03:00:24.409Z,99118.47
2023-04-25T03:01:06.194Z,99128.03
2023-04-25T03:01:47.913Z,99075.09
2023-04-25T03:02:29.626Z,99103.59
2023-04-25T03:03:11.960Z,99081.13
2023-04-25T03:03:54.091Z,99101.41
2023-04-25T03:04:35.975Z,99098.31
2023-04-25T03:05:18.213Z,99122.84
2023-04-25T03:05:59.883Z,99125.03
2023-04-25T03:06:46.377Z,99111.75
2023-04-25T03:07:28.069Z,99083.78
2023-04-25T03:08:09.725Z,99114.84
2023-04-25T03:08:53.152Z,99125.84
2023-04-25T03:09:34.862Z,99102.41
2023-04-25T03:10:16.458Z,99121.22
2023-04-25T03:10:58.424Z,99122.84
2023-04-25T03:11:40.373Z,99067.13
2023-04-25T03:12:22.019Z,99115.03
2023-04-25T03:13:03.705Z,99105.59
2023-04-25T03:13:45.385Z,99124.66
2023-04-25T03:14:27.054Z,99105.22
2023-04-25T03:15:09.825Z,99129.69
2023-04-25T03:15:51.620Z,99098.22
2023-04-25T03:16:34.732Z,99122.72
2023-04-25T03:17:17.025Z,99099.16
2023-04-25T03:17:58.732Z,99058.69
2023-04-25T03:18:40.563Z,99106.94
2023-04-25T03:19:22.399Z,99077.94
2023-04-25T03:20:05.085Z,99070.38
2023-04-25T03:20:47.644Z,98992.72
2023-04-25T03:21:29.390Z,99006.41
2023-04-25T03:22:13.341Z,99038.88
2023-04-25T03:22:55.888Z,99078.41
2023-04-25T03:23:37.711Z,99105.31
2023-04-25T03:24:19.432Z,99094.88
2023-04-25T03:25:01.131Z,99115.78
2023-04-25T03:25:43.881Z,99061.31
2023-04-25T03:26:25.917Z,99094.06
2023-04-25T03:27:07.554Z,99127.72
2023-04-25T03:27:49.302Z,99103.88
2023-04-25T03:28:30.984Z,99077.59
2023-04-25T03:29:12.795Z,99088.13
2023-04-25T03:29:57.885Z,99093.34
2023-04-25T03:30:39.857Z,99117.63
2023-04-25T03:31:21.783Z,99082.25
2023-04-25T03:32:03.442Z,99033.44
2023-04-25T03:32:45.124Z,99066.50
2023-04-25T03:33:30.918Z,99109.22
2023-04-25T03:34:12.580Z,99085.50
2023-04-25T03:34:54.184Z,99095.44
2023-04-25T03:35:36.223Z,99091.00
2023-04-25T03:36:18.136Z,99105.25
2023-04-25T03:37:00.910Z,99064.00
2023-04-25T03:37:46.353Z,99116.34
2023-04-25T03:38:32.266Z,99091.72
2023-04-25T03:39:14.525Z,99104.19
2023-04-25T03:40:00.868Z,99125.47
2023-04-25T03:40:54.909Z,99092.53
2023-04-25T03:41:48.717Z,99126.56
2023-04-25T03:42:32.144Z,99072.97
2023-04-25T03:43:13.926Z,99100.34
2023-04-25T03:44:01.131Z,99131.84
2023-04-25T03:44:42.773Z,99023.38
2023-04-25T03:45:24.450Z,99108.56
2023-04-25T03:46:06.459Z,99114.81
2023-04-25T03:46:48.089Z,99133.00
2023-04-25T03:47:30.443Z,99085.97
2023-04-25T03:48:12.573Z,99099.47
2023-04-25T03:48:54.180Z,99107.91
2023-04-25T03:49:40.117Z,99047.34
2023-04-25T03:50:22.062Z,99065.97
2023-04-25T03:51:03.883Z,99124.25
2023-04-25T03:51:47.080Z,99103.97
2023-04-25T03:52:28.909Z,99083.63
2023-04-25T03:53:10.773Z,99132.66
2023-04-25T03:54:12.447Z,99114.00
2023-04-25T03:55:25.392Z,99088.91
2023-04-25T03:56:07.505Z,99096.00
2023-04-25T03:56:51.237Z,99134.19
2023-04-25T03:57:36.360Z,99008.66
2023-04-25T03:58:17.988Z,99086.91
2023-04-25T03:58:59.631Z,99131.94
2023-04-25T03:59:43.160Z,99131.09
2023-04-25T04:00:27.366Z,99118.56
2023-04-25T04:01:09.220Z,99127.19
2023-04-25T04:01:53.654Z,99125.91
2023-04-25T04:02:36.123Z,99049.75
2023-04-25T04:03:18.323Z,99116.00
2023-04-25T04:04:00.588Z,99103.69
2023-04-25T04:04:45.099Z,99133.75
2023-04-25T04:05:27.267Z,99131.94
2023-04-25T04:06:11.763Z,99102.84
2023-04-25T04:07:00.638Z,99132.13
2023-04-25T04:07:45.637Z,99076.47
2023-04-25T04:08:28.218Z,99133.13
2023-04-25T04:09:11.968Z,99124.50
2023-04-25T04:09:54.843Z,99145.69
2023-04-25T04:10:42.490Z,99093.13
2023-04-25T04:11:24.605Z,99147.06
2023-04-25T04:12:06.543Z,99141.16
2023-04-25T04:12:49.028Z,99144.78
2023-04-25T04:13:30.957Z,99127.97
2023-04-25T04:14:12.629Z,99111.84
2023-04-25T04:14:58.709Z,99120.88
2023-04-25T04:15:40.446Z,99142.41
2023-04-25T04:16:22.205Z,99143.22
2023-04-25T04:17:03.943Z,99102.13
2023-04-25T04:17:46.415Z,99143.44
2023-04-25T04:18:28.114Z,99148.06
2023-04-25T04:19:11.887Z,99138.41
2023-04-25T04:19:56.956Z,99133.94
2023-04-25T04:20:38.544Z,99130.41
2023-04-25T04:21:22.530Z,99149.88
2023-04-25T04:22:04.511Z,99125.59
2023-04-25T04:22:46.551Z,99123.59
2023-04-25T04:23:29.652Z,99125.44
2023-04-25T04:24:12.596Z,99146.72
2023-04-25T04:25:08.789Z,99144.69
2023-04-25T04:26:10.976Z,99131.69
2023-04-25T04:27:02.054Z,99151.88
2023-04-25T04:27:55.784Z,99134.94
2023-04-25T04:28:55.065Z,99134.69
2023-04-25T04:29:54.231Z,99103.75
2023-04-25T04:30:42.199Z,99124.84
2023-04-25T04:31:24.886Z,99146.78
2023-04-25T04:32:06.672Z,99148.41
2023-04-25T04:32:50.698Z,99140.88
2023-04-25T04:33:32.456Z,99145.44
2023-04-25T04:34:19.267Z,99142.16
2023-04-25T04:35:00.963Z,99124.69
2023-04-25T04:35:43.003Z,99110.03
2023-04-25T04:36:27.405Z,99131.31
2023-04-25T04:37:10.643Z,99139.94
2023-04-25T04:37:52.223Z,99142.22
2023-04-25T04:38:35.554Z,99152.03
2023-04-25T04:39:18.847Z,99153.88
2023-04-25T04:40:12.192Z,99107.91
2023-04-25T04:41:12.411Z,99129.84
2023-04-25T04:42:12.471Z,99152.31
2023-04-25T04:43:20.217Z,99155.94
2023-04-25T04:44:33.645Z,99127.72
2023-04-25T04:45:28.715Z,99108.72
2023-04-25T04:46:25.651Z,99152.16
2023-04-25T04:47:26.911Z,99150.66
2023-04-25T04:48:29.201Z,99151.97
2023-04-25T04:49:34.726Z,99145.22
2023-04-25T04:50:36.447Z,99131.47
2023-04-25T04:51:56.758Z,99151.31
2023-04-25T04:53:18.171Z,99153.59
2023-04-25T04:54:05.988Z,99093.28
2023-04-25T04:55:13.913Z,99158.41
2023-04-25T04:56:06.408Z,99167.16
2023-04-25T04:57:06.901Z,99151.31
2023-04-25T04:58:07.295Z,99130.38
2023-04-25T04:58:58.105Z,99173.38
2023-04-25T04:59:48.746Z,99182.91
2023-04-25T05:00:56.294Z,99153.28
2023-04-25T05:01:49.391Z,99165.22
2023-04-25T05:02:39.478Z,99170.16
2023-04-25T05:03:41.993Z,99154.25
2023-04-25T05:04:39.333Z,99181.50
2023-04-25T05:05:35.402Z,99176.91
2023-04-25T05:06:39.442Z,99170.97
2023-04-25T05:07:50.381Z,99174.25
2023-04-25T05:08:50.431Z,99179.72
2023-04-25T05:09:51.423Z,99166.44
2023-04-25T05:10:47.753Z,99177.25
2023-04-25T05:11:39.002Z,99137.56
2023-04-25T05:12:34.666Z,99174.91
2023-04-25T05:13:37.930Z,99162.31
2023-04-25T05:14:49.001Z,99158.41
2023-04-25T05:15:49.518Z,99149.97
2023-04-25T05:16:57.340Z,99171.91
2023-04-25T05:17:59.340Z,99161.88
2023-04-25T05:18:41.396Z,99153.69
2023-04-25T05:19:37.215Z,99159.88
2023-04-25T05:20:38.979Z,99175.25
2023-04-25T05:21:32.263Z,99172.44
2023-04-25T05:22:30.459Z,99164.41
2023-04-25T05:23:33.352Z,99171.06
2023-04-25T05:24:40.429Z,99171.94
2023-04-25T05:25:40.631Z,99169.75
2023-04-25T05:26:42.521Z,99180.19
2023-04-25T05:27:38.152Z,99158.38
2023-04-25T05:28:44.133Z,99149.63
2023-04-25T05:29:52.621Z,99138.78
2023-04-25T05:30:48.345Z,99155.16
2023-04-25T05:31:33.606Z,99162.16
2023-04-25T05:32:19.681Z,99177.78
2023-04-25T05:33:02.868Z,99171.91
2023-04-25T05:33:44.649Z,99173.00
2023-04-25T05:34:26.911Z,99169.09
2023-04-25T05:35:17.554Z,99155.31
2023-04-25T05:36:02.721Z,99180.09
2023-04-25T05:36:44.490Z,99172.78
2023-04-25T05:37:26.119Z,99113.91
2023-04-25T05:38:11.594Z,99147.63
2023-04-25T05:39:13.562Z,99105.31
2023-04-25T05:40:13.994Z,99182.47
2023-04-25T05:41:21.978Z,99122.06
2023-04-25T05:42:04.763Z,99180.94
2023-04-25T05:42:58.385Z,99108.88
2023-04-25T05:44:12.181Z,99103.88
2023-04-25T05:44:59.360Z,99183.63
2023-04-25T05:46:01.355Z,99161.06
2023-04-25T05:46:56.422Z,99175.38
2023-04-25T05:48:07.556Z,99157.06
2023-04-25T05:49:07.993Z,99184.44
2023-04-25T05:49:58.828Z,99129.69
2023-04-25T05:50:57.757Z,99174.94
2023-04-25T05:51:57.963Z,99142.06
2023-04-25T05:52:58.269Z,99142.72
2023-04-25T05:53:45.755Z,99153.56
2023-04-25T05:54:28.900Z,99165.81
2023-04-25T05:55:11.579Z,99171.72
2023-04-25T05:55:53.879Z,99168.09
2023-04-25T05:56:41.344Z,99142.34
2023-04-25T05:57:27.226Z,99167.13
2023-04-25T05:58:10.894Z,99120.34
2023-04-25T05:58:52.653Z,99152.50
2023-04-25T05:59:34.417Z,99149.25
2023-04-25T06:00:16.920Z,99157.63
2023-04-25T06:01:00.545Z,99180.34
2023-04-25T06:01:42.899Z,99177.91
2023-04-25T06:02:24.708Z,99178.31
2023-04-25T06:03:08.902Z,99107.81
2023-04-25T06:03:52.689Z,99178.56
2023-04-25T06:04:35.017Z,99179.59
2023-04-25T06:05:17.721Z,99155.84
2023-04-25T06:06:01.477Z,99115.78
2023-04-25T06:06:43.073Z,99175.13
2023-04-25T06:07:24.657Z,99175.75
2023-04-25T06:08:06.236Z,99110.56
2023-04-25T06:08:47.877Z,99174.22
2023-04-25T06:09:29.460Z,99067.34
2023-04-25T06:10:11.227Z,99146.50
2023-04-25T06:10:53.819Z,99086.44
2023-04-25T06:11:35.405Z,99139.84
2023-04-25T06:12:18.557Z,99172.41
2023-04-25T06:13:00.370Z,99175.94
2023-04-25T06:13:42.138Z,99170.06
2023-04-25T06:14:28.250Z,99170.50
2023-04-25T06:15:24.301Z,99169.09
2023-04-25T06:16:09.657Z,99167.03
2023-04-25T06:16:51.507Z,99163.38
2023-04-25T06:17:33.771Z,99163.56
2023-04-25T06:18:15.846Z,99163.00
2023-04-25T06:18:57.736Z,99175.66
2023-04-25T06:19:39.384Z,99151.56
2023-04-25T06:20:24.211Z,99170.56
2023-04-25T06:21:06.784Z,99176.69
2023-04-25T06:21:48.598Z,99173.59
2023-04-25T06:22:30.265Z,99167.47
2023-04-25T06:23:12.130Z,99173.13
2023-04-25T06:24:20.065Z,99173.44
2023-04-25T06:25:01.888Z,99160.72
2023-04-25T06:25:44.612Z,99174.31
2023-04-25T06:26:26.460Z,99151.16
2023-04-25T06:27:08.060Z,99169.50
2023-04-25T06:27:49.835Z,99179.41
2023-04-25T06:28:31.877Z,99145.25
2023-04-25T06:29:13.501Z,99180.34
2023-04-25T06:29:55.204Z,99155.75
2023-04-25T06:30:36.884Z,99088.41
2023-04-25T06:31:23.134Z,99188.59
2023-04-25T06:32:06.093Z,99168.75
2023-04-25T06:32:47.780Z,99183.53
2023-04-25T06:33:29.610Z,99191.31
2023-04-25T06:34:12.030Z,99192.13
2023-04-25T06:34:55.809Z,99155.38
2023-04-25T06:35:37.563Z,99181.59
2023-04-25T06:36:25.786Z,99194.25
2023-04-25T06:37:09.622Z,99141.63
2023-04-25T06:37:51.387Z,99185.44
2023-04-25T06:38:37.120Z,99187.47
2023-04-25T06:39:18.770Z,99178.13
2023-04-25T06:40:00.458Z,99184.72
2023-04-25T06:40:42.152Z,99189.00
2023-04-25T06:41:24.981Z,99180.66
2023-04-25T06:42:06.625Z,99184.75
2023-04-25T06:43:07.181Z,99039.72
2023-04-25T06:44:08.495Z,99177.28
2023-04-25T06:44:55.056Z,99098.59
2023-04-25T06:45:37.213Z,99178.72
2023-04-25T06:46:19.387Z,99177.91
2023-04-25T06:47:03.023Z,99175.88
2023-04-25T06:47:45.342Z,99169.41
2023-04-25T06:48:28.282Z,99165.75
2023-04-25T06:49:09.945Z,99158.38
2023-04-25T06:49:51.811Z,99174.34
2023-04-25T06:50:34.632Z,99149.22
2023-04-25T06:51:16.250Z,99166.63
2023-04-25T06:51:59.342Z,99162.75
2023-04-25T06:52:41.080Z,99143.97
2023-04-25T06:53:22.733Z,99164.63
2023-04-25T06:54:10.302Z,99165.84
2023-04-25T06:55:02.068Z,99180.34
2023-04-25T06:55:59.544Z,99169.13
2023-04-25T06:57:00.728Z,99172.94
2023-04-25T06:57:45.885Z,99142.47
2023-04-25T06:58:48.026Z,99150.97
2023-04-25T06:59:37.331Z,99177.91
2023-04-25T07:00:19.726Z,99175.03
2023-04-25T07:01:01.490Z,99176.88
2023-04-25T07:01:43.275Z,99098.56
2023-04-25T07:02:30.607Z,99184.19
2023-04-25T07:03:13.542Z,99159.25
2023-04-25T07:03:55.526Z,99183.81
2023-04-25T07:04:38.533Z,99110.63
2023-04-25T07:05:20.426Z,99181.53
2023-04-25T07:06:02.296Z,99173.06
2023-04-25T07:06:44.570Z,99180.88
2023-04-25T07:07:28.141Z,99179.41
2023-04-25T07:08:12.624Z,99185.72
2023-04-25T07:08:55.057Z,99193.03
2023-04-25T07:09:36.728Z,99162.16
2023-04-25T07:10:18.408Z,99179.31
2023-04-25T07:11:00.049Z,99172.31
2023-04-25T07:11:41.700Z,99189.53
2023-04-25T07:12:23.436Z,99190.13
2023-04-25T07:13:05.046Z,99180.31
2023-04-25T07:13:46.673Z,99178.88
2023-04-25T07:14:28.916Z,99184.59
2023-04-25T07:15:12.503Z,99184.59
2023-04-25T07:15:57.413Z,99159.06
2023-04-25T07:16:39.390Z,99196.50
2023-04-25T07:17:20.976Z,99205.88
2023-04-25T07:18:02.632Z,99201.59
2023-04-25T07:18:44.353Z,99198.75
2023-04-25T07:19:27.563Z,99160.91
2023-04-25T07:20:12.244Z,99192.88
2023-04-25T07:20:54.099Z,99159.34
2023-04-25T07:21:37.300Z,99098.41
2023-04-25T07:22:19.666Z,99202.69
2023-04-25T07:23:01.594Z,99191.47
2023-04-25T07:23:43.284Z,99203.34
2023-04-25T07:24:29.749Z,99190.03
2023-04-25T07:25:12.590Z,99196.16
2023-04-25T07:25:54.266Z,99192.47
2023-04-25T07:26:38.386Z,99188.38
2023-04-25T07:27:32.778Z,99197.31
2023-04-25T07:28:34.473Z,99196.94
2023-04-25T07:29:17.388Z,99184.28
2023-04-25T07:29:59.092Z,99169.78
2023-04-25T07:30:40.810Z,99199.03
2023-04-25T07:31:23.726Z,99156.56
2023-04-25T07:32:05.685Z,99197.06
2023-04-25T07:32:47.488Z,99196.50
2023-04-25T07:33:29.842Z,99196.72
2023-04-25T07:34:11.844Z,99195.16
2023-04-25T07:34:54.128Z,99194.81
2023-04-25T07:35:35.955Z,99179.31
2023-04-25T07:36:17.614Z,99187.56
2023-04-25T07:37:00.416Z,99197.84
2023-04-25T07:37:47.416Z,99195.81
2023-04-25T07:38:32.893Z,99171.31
2023-04-25T07:39:14.810Z,99185.25
2023-04-25T07:39:56.973Z,99195.06
2023-04-25T07:40:38.698Z,99192.63
2023-04-25T07:41:45.024Z,99188.59
2023-04-25T07:42:33.287Z,99199.22
2023-04-25T07:43:17.525Z,99170.25
2023-04-25T07:44:09.062Z,99181.88
2023-04-25T07:44:52.559Z,99189.25
2023-04-25T07:45:34.641Z,99171.06
2023-04-25T07:46:17.000Z,99179.41
2023-04-25T07:46:58.850Z,99175.31
2023-04-25T07:47:40.721Z,99178.78
2023-04-25T07:48:22.554Z,99192.66
2023-04-25T07:49:07.073Z,99144.69
2023-04-25T07:49:49.322Z,99186.38
2023-04-25T07:50:31.540Z,99162.28
2023-04-25T07:51:13.390Z,99190.28
2023-04-25T07:51:55.733Z,99181.88
2023-04-25T07:52:38.662Z,99188.25
2023-04-25T07:53:33.459Z,99191.94
2023-04-25T07:54:19.235Z,99163.94
2023-04-25T07:55:06.353Z,99199.06
2023-04-25T07:55:57.563Z,99191.72
2023-04-25T07:56:49.594Z,99191.72
2023-04-25T07:57:34.533Z,99200.09
2023-04-25T07:58:17.093Z,99145.75
2023-04-25T07:59:01.631Z,99194.34
2023-04-25T07:59:43.686Z,99202.09
2023-04-25T08:00:25.693Z,99175.69
2023-04-25T08:01:21.683Z,99196.91
2023-04-25T08:02:12.941Z,99198.91
2023-04-25T08:02:54.912Z,99174.41
2023-04-25T08:03:36.910Z,99182.72
2023-04-25T08:04:23.723Z,99132.78
2023-04-25T08:05:12.948Z,99208.78
2023-04-25T08:05:56.599Z,99199.34
2023-04-25T08:06:40.200Z,99197.84
2023-04-25T08:07:30.457Z,99179.00
2023-04-25T08:08:17.073Z,99201.72
2023-04-25T08:08:58.776Z,99197.59
2023-04-25T08:09:48.058Z,99208.59
2023-04-25T08:10:37.992Z,99185.94
2023-04-25T08:11:19.748Z,99139.56
2023-04-25T08:12:01.988Z,99207.38
2023-04-25T08:12:46.896Z,99208.19
2023-04-25T08:13:28.568Z,99203.91
2023-04-25T08:14:10.575Z,99186.03
2023-04-25T08:14:54.192Z,99210.13
2023-04-25T08:15:36.046Z,99191.31
2023-04-25T08:16:17.829Z,99213.19
2023-04-25T08:16:59.553Z,99220.50
2023-04-25T08:17:56.276Z,99224.50
2023-04-25T08:18:41.045Z,99236.31
2023-04-25T08:19:23.107Z,99228.78
2023-04-25T08:20:06.765Z,99213.19
2023-04-25T08:20:49.678Z,99229.91
2023-04-25T08:21:32.379Z,99230.50
2023-04-25T08:22:16.816Z,99212.44
2023-04-25T08:23:16.149Z,99241.03
2023-04-25T08:24:09.556Z,99238.38
2023-04-25T08:24:53.782Z,99241.66
2023-04-25T08:25:35.665Z,99247.56
2023-04-25T08:26:17.816Z,99249.03
2023-04-25T08:26:59.950Z,99254.13
2023-04-25T08:27:44.468Z,99257.59
2023-04-25T08:28:26.721Z,99243.66
2023-04-25T08:29:09.139Z,99244.28
2023-04-25T08:29:54.183Z,99252.88
2023-04-25T08:30:36.212Z,99259.66
2023-04-25T08:31:18.596Z,99257.19
2023-04-25T08:32:10.260Z,99250.84
2023-04-25T08:32:57.164Z,99273.34
2023-04-25T08:34:12.028Z,99266.78
2023-04-25T08:34:58.646Z,99269.22
2023-04-25T08:35:41.366Z,99265.72
2023-04-25T08:36:37.664Z,99278.38
2023-04-25T08:37:29.526Z,99272.25
2023-04-25T08:38:16.286Z,99272.44
2023-04-25T08:38:59.304Z,99276.16
2023-04-25T08:39:41.105Z,99289.22
2023-04-25T08:40:41.729Z,99270.56
2023-04-25T08:41:31.127Z,99251.75
2023-04-25T08:42:13.289Z,99255.41
2023-04-25T08:42:56.635Z,99259.03
2023-04-25T08:43:38.834Z,99274.22
2023-04-25T08:44:21.180Z,99254.53
2023-04-25T08:45:06.935Z,99265.19
2023-04-25T08:45:54.800Z,99269.75
2023-04-25T08:46:50.988Z,99266.72
2023-04-25T08:47:47.422Z,99266.84
2023-04-25T08:48:32.108Z,99254.25
2023-04-25T08:49:13.844Z,99270.19
2023-04-25T08:49:56.950Z,99273.53
2023-04-25T08:50:45.122Z,99279.94
2023-04-25T08:51:28.990Z,99255.03
2023-04-25T08:52:12.235Z,99281.66
2023-04-25T08:52:54.934Z,99261.53
2023-04-25T08:53:38.501Z,99263.63
2023-04-25T08:54:34.761Z,99254.00